Terminal Aerodrome Forecast
Issued by NWS Corpus Christi, TX

Current Version | Previous Version | Text Only | Print | Product List | Glossary On
Versions: 1 2 3 4 5 6 7 8 9 10 11 12 13 14
000
FTUS44 KCRP 131132
TAFCRP
TAF
KCRP 131132Z 1312/1412 VRB03KT P6SM SCT250
     FM131700 19007KT P6SM SCT120 BKN250
     FM141000 VRB03KT 5SM BR BKN200=

USA.gov is the U.S. government's official web portal to all federal, state and local government web resources and services.